createdAt,value
2019-02-03T00:00:07.300Z,980.06
2019-02-03T00:01:07.426Z,980.05
2019-02-03T00:02:07.599Z,980.10
2019-02-03T00:03:07.725Z,980.14
2019-02-03T00:04:07.852Z,980.14
2019-02-03T00:05:07.989Z,980.17
2019-02-03T00:06:08.143Z,980.20
2019-02-03T00:07:08.264Z,980.24
2019-02-03T00:08:08.396Z,980.18
2019-02-03T00:09:08.530Z,980.21
2019-02-03T00:10:08.682Z,980.24
2019-02-03T00:11:08.817Z,980.22
2019-02-03T00:12:08.938Z,980.29
2019-02-03T00:13:09.075Z,980.26
2019-02-03T00:14:09.213Z,980.28
2019-02-03T00:15:09.334Z,980.31
2019-02-03T00:16:09.466Z,980.33
2019-02-03T00:17:09.596Z,980.33
2019-02-03T00:18:09.730Z,980.39
2019-02-03T00:19:09.855Z,980.37
2019-02-03T00:20:09.979Z,980.40
2019-02-03T00:21:10.124Z,980.43
2019-02-03T00:22:10.243Z,980.47
2019-02-03T00:23:10.373Z,980.47
2019-02-03T00:24:10.520Z,980.50
2019-02-03T00:25:10.653Z,980.49
2019-02-03T00:26:10.779Z,980.56
2019-02-03T00:27:10.911Z,980.60
2019-02-03T00:28:11.062Z,980.60
2019-02-03T00:29:11.188Z,980.68
2019-02-03T00:30:11.315Z,980.66
2019-02-03T00:31:11.465Z,980.71
2019-02-03T00:32:11.587Z,980.73
2019-02-03T00:33:11.757Z,980.76
2019-02-03T00:34:11.884Z,980.76
2019-02-03T00:35:12.046Z,980.83
2019-02-03T00:36:12.153Z,980.86
2019-02-03T00:37:16.158Z,980.90
2019-02-03T00:38:20.113Z,980.94
2019-02-03T00:39:12.595Z,980.90
2019-02-03T00:40:12.778Z,980.91
2019-02-03T00:41:12.878Z,980.92
2019-02-03T00:42:12.951Z,980.89
2019-02-03T00:43:13.077Z,980.89
2019-02-03T00:44:13.200Z,980.88
2019-02-03T00:45:13.415Z,980.91
2019-02-03T00:46:13.487Z,980.91
2019-02-03T00:47:13.615Z,980.98
2019-02-03T00:48:13.747Z,980.99
2019-02-03T00:49:13.871Z,980.98
2019-02-03T00:50:14.002Z,980.96
2019-02-03T00:51:14.136Z,981.01
2019-02-03T00:52:14.262Z,980.93
2019-02-03T00:53:14.395Z,980.98
2019-02-03T00:54:14.530Z,980.95
2019-02-03T00:55:14.665Z,980.93
2019-02-03T00:56:14.797Z,980.98
2019-02-03T00:57:14.927Z,980.98
2019-02-03T00:58:15.066Z,980.98
2019-02-03T00:59:15.206Z,981.00
2019-02-03T01:00:15.333Z,980.98
2019-02-03T01:01:15.460Z,980.97
2019-02-03T01:02:15.653Z,980.96
2019-02-03T01:03:15.651Z,980.97
2019-02-03T01:04:15.784Z,981.00
2019-02-03T01:05:15.914Z,981.02
2019-02-03T01:06:16.040Z,981.00
2019-02-03T01:07:26.922Z,981.05
2019-02-03T01:08:16.311Z,981.08
2019-02-03T01:09:16.439Z,981.06
2019-02-03T01:10:16.571Z,981.07
2019-02-03T01:11:16.695Z,981.07
2019-02-03T01:12:16.827Z,981.09
2019-02-03T01:13:16.955Z,981.14
2019-02-03T01:14:17.102Z,981.16
2019-02-03T01:15:17.225Z,981.20
2019-02-03T01:16:17.440Z,981.23
2019-02-03T01:17:17.444Z,981.26
2019-02-03T01:18:17.573Z,981.27
2019-02-03T01:19:17.703Z,981.30
2019-02-03T01:20:17.831Z,981.32
2019-02-03T01:21:17.961Z,981.33
2019-02-03T01:22:18.085Z,981.36
2019-02-03T01:23:18.213Z,981.44
2019-02-03T01:24:18.346Z,981.44
2019-02-03T01:25:18.592Z,981.48
2019-02-03T01:26:18.605Z,981.51
2019-02-03T01:27:18.732Z,981.53
2019-02-03T01:28:18.857Z,981.53
2019-02-03T01:29:18.987Z,981.53
2019-02-03T01:30:19.119Z,981.61
2019-02-03T01:31:19.255Z,981.56
2019-02-03T01:32:19.385Z,981.62
2019-02-03T01:33:19.513Z,981.62
2019-02-03T01:34:19.640Z,981.62
2019-02-03T01:35:19.769Z,981.58
2019-02-03T01:36:19.894Z,981.61
2019-02-03T01:37:20.024Z,981.64
2019-02-03T01:38:20.150Z,981.71
2019-02-03T01:39:20.282Z,981.65
2019-02-03T01:40:20.409Z,981.68
2019-02-03T01:41:20.542Z,981.63
2019-02-03T01:42:20.673Z,981.66
2019-02-03T01:43:20.801Z,981.69
2019-02-03T01:44:23.133Z,981.68
2019-02-03T01:45:21.050Z,981.70
2019-02-03T01:46:21.178Z,981.69
2019-02-03T01:47:21.337Z,981.78
2019-02-03T01:48:21.463Z,981.74
2019-02-03T01:49:21.591Z,981.72
2019-02-03T01:50:22.596Z,981.73
2019-02-03T01:51:21.887Z,981.74
2019-02-03T01:52:22.011Z,981.69
2019-02-03T01:53:22.149Z,981.71
2019-02-03T01:54:22.283Z,981.73
2019-02-03T01:55:22.410Z,981.72
2019-02-03T01:56:22.536Z,981.73
2019-02-03T01:57:22.666Z,981.72
2019-02-03T01:58:22.805Z,981.73
2019-02-03T01:59:22.936Z,981.70
2019-02-03T02:00:23.065Z,981.70
2019-02-03T02:01:23.193Z,981.70
2019-02-03T02:02:23.320Z,981.67
2019-02-03T02:03:23.449Z,981.64
2019-02-03T02:04:23.575Z,981.66
2019-02-03T02:05:23.704Z,981.66
2019-02-03T02:06:23.840Z,981.67
2019-02-03T02:07:23.965Z,981.67
2019-02-03T02:08:24.093Z,981.68
2019-02-03T02:09:24.235Z,981.69
2019-02-03T02:10:24.368Z,981.65
2019-02-03T02:11:24.496Z,981.68
2019-02-03T02:12:24.622Z,981.71
2019-02-03T02:13:24.747Z,981.69
2019-02-03T02:14:24.880Z,981.68
2019-02-03T02:15:25.009Z,981.69
2019-02-03T02:16:25.134Z,981.56
2019-02-03T02:17:25.260Z,981.57
2019-02-03T02:18:25.390Z,981.52
2019-02-03T02:19:25.550Z,981.50
2019-02-03T02:20:25.667Z,981.42
2019-02-03T02:21:25.797Z,981.39
2019-02-03T02:22:25.927Z,981.35
2019-02-03T02:23:26.052Z,981.33
2019-02-03T02:24:26.174Z,981.35
2019-02-03T02:25:26.309Z,981.33
2019-02-03T02:26:26.433Z,981.40
2019-02-03T02:27:26.579Z,981.43
2019-02-03T02:28:27.356Z,981.52
2019-02-03T02:29:26.895Z,981.54
2019-02-03T02:30:27.037Z,981.62
2019-02-03T02:31:27.140Z,981.72
2019-02-03T02:32:27.268Z,981.76
2019-02-03T02:33:27.423Z,981.82
2019-02-03T02:34:27.573Z,981.86
2019-02-03T02:35:27.698Z,981.98
2019-02-03T02:36:27.843Z,982.07
2019-02-03T02:37:27.970Z,982.00
2019-02-03T02:38:28.157Z,982.14
2019-02-03T02:39:28.256Z,982.18
2019-02-03T02:40:28.388Z,982.23
2019-02-03T02:41:28.538Z,982.25
2019-02-03T02:42:28.653Z,982.24
2019-02-03T02:43:28.786Z,982.32
2019-02-03T02:44:28.915Z,982.36
2019-02-03T02:45:29.061Z,982.36
2019-02-03T02:46:29.187Z,982.40
2019-02-03T02:47:29.318Z,982.42
2019-02-03T02:48:29.447Z,982.41
2019-02-03T02:49:29.585Z,982.45
2019-02-03T02:50:29.709Z,982.39
2019-02-03T02:51:29.841Z,982.44
2019-02-03T02:52:29.971Z,982.43
2019-02-03T02:53:30.127Z,982.42
2019-02-03T02:54:30.260Z,982.47
2019-02-03T02:55:30.385Z,982.49
2019-02-03T02:56:30.512Z,982.48
2019-02-03T02:57:30.647Z,982.55
2019-02-03T02:58:30.773Z,982.52
2019-02-03T02:59:30.902Z,982.56
2019-02-03T03:00:31.033Z,982.60
2019-02-03T03:01:31.225Z,982.55
2019-02-03T03:02:31.402Z,982.59
2019-02-03T03:03:31.514Z,982.60
2019-02-03T03:04:31.637Z,982.60
2019-02-03T03:05:31.772Z,982.65
2019-02-03T03:06:31.895Z,982.65
2019-02-03T03:07:32.024Z,982.71
2019-02-03T03:08:32.175Z,982.72
2019-02-03T03:09:32.303Z,982.75
2019-02-03T03:10:32.429Z,982.77
2019-02-03T03:11:32.569Z,982.76
2019-02-03T03:12:32.710Z,982.78
2019-02-03T03:13:32.825Z,982.79
2019-02-03T03:14:32.951Z,982.80
2019-02-03T03:15:33.077Z,982.77
2019-02-03T03:16:33.213Z,982.81
2019-02-03T03:17:33.340Z,982.84
2019-02-03T03:18:33.464Z,982.81
2019-02-03T03:19:33.610Z,982.86
2019-02-03T03:20:33.775Z,982.87
2019-02-03T03:21:33.885Z,982.90
2019-02-03T03:22:34.024Z,982.93
2019-02-03T03:23:34.222Z,982.94
2019-02-03T03:24:34.300Z,982.91
2019-02-03T03:25:34.432Z,982.96
2019-02-03T03:26:34.573Z,982.92
2019-02-03T03:27:34.716Z,982.96
2019-02-03T03:28:34.839Z,982.97
2019-02-03T03:29:34.973Z,983.04
2019-02-03T03:30:35.109Z,983.07
2019-02-03T03:31:35.262Z,983.07
2019-02-03T03:32:35.385Z,983.07
2019-02-03T03:33:35.516Z,983.09
2019-02-03T03:34:35.669Z,983.06
2019-02-03T03:35:35.790Z,983.08
2019-02-03T03:36:35.917Z,983.09
2019-02-03T03:37:36.049Z,983.06
2019-02-03T03:38:36.204Z,983.08
2019-02-03T03:39:36.322Z,983.11
2019-02-03T03:40:36.452Z,983.16
2019-02-03T03:41:36.577Z,983.14
2019-02-03T03:42:36.716Z,983.22
2019-02-03T03:43:36.833Z,983.25
2019-02-03T03:44:36.963Z,983.34
2019-02-03T03:45:37.095Z,983.31
2019-02-03T03:46:37.251Z,983.30
2019-02-03T03:47:37.365Z,983.32
2019-02-03T03:48:37.554Z,983.36
2019-02-03T03:49:37.557Z,983.38
2019-02-03T03:50:37.696Z,983.41
2019-02-03T03:51:37.826Z,983.38
2019-02-03T03:52:39.427Z,983.38
2019-02-03T03:53:38.097Z,983.35
2019-02-03T03:54:38.228Z,983.36
2019-02-03T03:55:38.358Z,983.31
2019-02-03T03:56:38.489Z,983.31
2019-02-03T03:57:38.637Z,983.42
2019-02-03T03:58:38.765Z,983.38
2019-02-03T03:59:38.911Z,983.46
2019-02-03T04:00:39.033Z,983.43
2019-02-03T04:01:39.163Z,983.45
2019-02-03T04:02:39.289Z,983.51
2019-02-03T04:03:39.435Z,983.49
2019-02-03T04:04:39.565Z,983.48
2019-02-03T04:05:39.741Z,983.50
2019-02-03T04:06:39.871Z,983.49
2019-02-03T04:07:40.028Z,983.55
2019-02-03T04:08:45.143Z,983.55
2019-02-03T04:09:40.300Z,983.56
2019-02-03T04:10:40.430Z,983.52
2019-02-03T04:11:40.575Z,983.52
2019-02-03T04:12:40.705Z,983.50
2019-02-03T04:13:40.883Z,983.44
2019-02-03T04:14:40.973Z,983.43
2019-02-03T04:15:41.090Z,983.48
2019-02-03T04:16:41.221Z,983.50
2019-02-03T04:17:41.355Z,983.47
2019-02-03T04:18:41.613Z,983.48
2019-02-03T04:19:41.602Z,983.51
2019-02-03T04:20:41.730Z,983.54
2019-02-03T04:21:41.865Z,983.58
2019-02-03T04:22:42.015Z,983.52
2019-02-03T04:23:42.138Z,983.58
2019-02-03T04:24:42.269Z,983.55
2019-02-03T04:25:42.412Z,983.53
2019-02-03T04:26:42.551Z,983.55
2019-02-03T04:27:42.692Z,983.60
2019-02-03T04:28:42.813Z,983.65
2019-02-03T04:29:42.940Z,983.70
2019-02-03T04:30:43.087Z,983.73
2019-02-03T04:31:43.218Z,983.74
2019-02-03T04:32:43.343Z,983.71
2019-02-03T04:33:43.514Z,983.73
2019-02-03T04:34:43.672Z,983.80
2019-02-03T04:35:43.802Z,983.82
2019-02-03T04:36:43.927Z,983.83
2019-02-03T04:37:44.100Z,983.88
2019-02-03T04:38:57.274Z,983.93
2019-02-03T04:39:44.358Z,983.93
2019-02-03T04:40:44.501Z,983.96
2019-02-03T04:41:44.628Z,983.93
2019-02-03T04:42:44.755Z,983.96
2019-02-03T04:43:44.885Z,983.89
2019-02-03T04:44:45.041Z,983.92
2019-02-03T04:45:45.162Z,983.93
2019-02-03T04:46:45.286Z,983.95
2019-02-03T04:47:45.451Z,983.93
2019-02-03T04:48:45.565Z,983.96
2019-02-03T04:49:45.691Z,983.97
2019-02-03T04:50:45.819Z,984.03
2019-02-03T04:51:45.975Z,984.04
2019-02-03T04:52:46.093Z,984.02
2019-02-03T04:53:46.219Z,984.03
2019-02-03T04:54:46.360Z,984.04
2019-02-03T04:55:46.490Z,984.07
2019-02-03T04:56:46.686Z,984.05
2019-02-03T04:57:46.748Z,984.09
2019-02-03T04:58:46.910Z,984.14
2019-02-03T04:59:47.031Z,984.10
2019-02-03T05:00:47.159Z,984.16
2019-02-03T05:01:47.293Z,984.15
2019-02-03T05:02:47.458Z,984.12
2019-02-03T05:03:47.578Z,984.15
2019-02-03T05:04:47.703Z,984.20
2019-02-03T05:05:47.836Z,984.16
2019-02-03T05:06:48.683Z,984.16
2019-02-03T05:07:48.099Z,984.18
2019-02-03T05:08:48.296Z,984.22
2019-02-03T05:09:48.360Z,984.19
2019-02-03T05:10:48.507Z,984.26
2019-02-03T05:11:48.640Z,984.26
2019-02-03T05:12:48.762Z,984.28
2019-02-03T05:13:48.886Z,984.27
2019-02-03T05:14:49.040Z,984.34
2019-02-03T05:15:49.163Z,984.32
2019-02-03T05:16:49.289Z,984.32
2019-02-03T05:17:49.447Z,984.34
2019-02-03T05:18:49.573Z,984.32
2019-02-03T05:19:49.698Z,984.33
2019-02-03T05:20:49.826Z,984.36
2019-02-03T05:21:49.969Z,984.37
2019-02-03T05:22:50.094Z,984.41
2019-02-03T05:23:50.262Z,984.25
2019-02-03T05:24:50.391Z,984.23
2019-02-03T05:25:50.537Z,984.26
2019-02-03T05:26:50.663Z,984.25
2019-02-03T05:27:50.808Z,984.24
2019-02-03T05:28:50.933Z,984.28
2019-02-03T05:29:51.060Z,984.28
2019-02-03T05:30:51.189Z,984.32
2019-02-03T05:31:51.321Z,984.34
2019-02-03T05:32:51.446Z,984.30
2019-02-03T05:33:51.571Z,984.36
2019-02-03T05:34:51.706Z,984.34
2019-02-03T05:35:51.863Z,984.35
2019-02-03T05:36:51.974Z,984.34
2019-02-03T05:37:52.103Z,984.36
2019-02-03T05:38:55.214Z,984.37
2019-02-03T05:39:52.378Z,984.36
2019-02-03T05:40:52.512Z,984.37
2019-02-03T05:41:52.641Z,984.40
2019-02-03T05:42:52.770Z,984.42
2019-02-03T05:43:52.919Z,984.46
2019-02-03T05:44:53.046Z,984.47
2019-02-03T05:45:53.185Z,984.47
2019-02-03T05:46:53.325Z,984.51
2019-02-03T05:47:53.451Z,984.46
2019-02-03T05:48:53.575Z,984.47
2019-02-03T05:49:53.709Z,984.48
2019-02-03T05:50:53.876Z,984.54
2019-02-03T05:51:53.994Z,984.54
2019-02-03T05:52:54.138Z,984.60
2019-02-03T05:53:54.260Z,984.62
2019-02-03T05:54:54.428Z,984.60
2019-02-03T05:55:54.555Z,984.58
2019-02-03T05:56:54.683Z,984.64
2019-02-03T05:57:54.812Z,984.63
2019-02-03T05:58:54.961Z,984.71
2019-02-03T05:59:55.119Z,984.74
2019-02-03T06:00:55.245Z,984.79
2019-02-03T06:01:55.380Z,984.81
2019-02-03T06:02:55.519Z,984.82
2019-02-03T06:03:55.657Z,984.82
2019-02-03T06:04:55.779Z,984.91
2019-02-03T06:05:55.914Z,984.93
2019-02-03T06:06:56.059Z,984.96
2019-02-03T06:07:56.189Z,985.00
2019-02-03T06:08:56.315Z,985.01
2019-02-03T06:09:56.461Z,985.02
2019-02-03T06:10:56.591Z,985.03
2019-02-03T06:11:56.714Z,985.08
2019-02-03T06:12:56.857Z,985.08
2019-02-03T06:13:56.978Z,985.13
2019-02-03T06:14:57.108Z,985.11
2019-02-03T06:15:57.246Z,985.15
2019-02-03T06:16:57.369Z,985.14
2019-02-03T06:17:57.503Z,985.16
2019-02-03T06:18:57.642Z,985.14
2019-02-03T06:19:57.778Z,985.17
2019-02-03T06:20:57.899Z,985.20
2019-02-03T06:21:58.034Z,985.22
2019-02-03T06:22:58.159Z,985.23
2019-02-03T06:23:58.306Z,985.23
2019-02-03T06:24:58.436Z,985.29
2019-02-03T06:25:58.567Z,985.31
2019-02-03T06:26:58.724Z,985.32
2019-02-03T06:27:58.846Z,985.32
2019-02-03T06:28:58.977Z,985.33
2019-02-03T06:29:59.121Z,985.33
2019-02-03T06:30:59.252Z,985.35
2019-02-03T06:31:59.378Z,985.32
2019-02-03T06:32:59.507Z,985.31
2019-02-03T06:33:59.662Z,985.29
2019-02-03T06:34:59.782Z,985.36
2019-02-03T06:35:59.914Z,985.33
2019-02-03T06:37:00.039Z,985.37
2019-02-03T06:38:00.197Z,985.33
2019-02-03T06:39:00.328Z,985.38
2019-02-03T06:40:00.453Z,985.38
2019-02-03T06:41:00.605Z,985.43
2019-02-03T06:42:00.729Z,985.44
2019-02-03T06:43:00.860Z,985.42
2019-02-03T06:44:00.987Z,985.43
2019-02-03T06:45:01.139Z,985.47
2019-02-03T06:46:01.272Z,985.40
2019-02-03T06:47:01.400Z,985.45
2019-02-03T06:48:01.546Z,985.49
2019-02-03T06:49:01.679Z,985.47
2019-02-03T06:50:01.802Z,985.57
2019-02-03T06:51:01.934Z,985.53
2019-02-03T06:52:02.072Z,985.58
2019-02-03T06:53:02.197Z,985.58
2019-02-03T06:54:02.324Z,985.66
2019-02-03T06:55:02.452Z,985.64
2019-02-03T06:56:02.599Z,985.67
2019-02-03T06:57:02.729Z,985.69
2019-02-03T06:58:02.883Z,985.73
2019-02-03T06:59:03.019Z,985.76
2019-02-03T07:00:03.130Z,985.76
2019-02-03T07:01:03.261Z,985.77
2019-02-03T07:02:03.395Z,985.79
2019-02-03T07:03:03.518Z,985.81
2019-02-03T07:04:03.648Z,985.82
2019-02-03T07:05:03.785Z,985.78
2019-02-03T07:06:03.928Z,985.83
2019-02-03T07:07:04.056Z,985.77
2019-02-03T07:08:04.309Z,985.82
2019-02-03T07:09:04.299Z,985.82
2019-02-03T07:10:04.447Z,985.81
2019-02-03T07:11:04.572Z,985.85
2019-02-03T07:12:04.702Z,985.89
2019-02-03T07:13:04.832Z,985.87
2019-02-03T07:14:04.961Z,985.91
2019-02-03T07:15:05.091Z,985.89
2019-02-03T07:16:05.214Z,985.89
2019-02-03T07:17:05.351Z,985.88
2019-02-03T07:18:05.489Z,985.90
2019-02-03T07:19:05.617Z,985.97
2019-02-03T07:20:05.744Z,985.97
2019-02-03T07:21:05.903Z,985.99
2019-02-03T07:22:06.030Z,985.98
2019-02-03T07:23:06.152Z,985.91
2019-02-03T07:24:06.297Z,985.96
2019-02-03T07:25:06.454Z,986.00
2019-02-03T07:26:06.581Z,986.01
2019-02-03T07:27:06.710Z,986.06
2019-02-03T07:28:06.859Z,986.07
2019-02-03T07:29:06.983Z,986.10
2019-02-03T07:30:07.102Z,986.06
2019-02-03T07:31:07.239Z,986.11
2019-02-03T07:32:07.381Z,986.16
2019-02-03T07:33:07.501Z,986.12
2019-02-03T07:34:07.631Z,986.16
2019-02-03T07:35:07.758Z,986.20
2019-02-03T07:36:07.916Z,986.15
2019-02-03T07:37:08.038Z,986.16
2019-02-03T07:38:10.556Z,986.20
2019-02-03T07:39:08.296Z,986.19
2019-02-03T07:40:12.480Z,986.17
2019-02-03T07:41:08.545Z,986.21
2019-02-03T07:42:08.673Z,986.27
2019-02-03T07:43:08.798Z,986.25
2019-02-03T07:44:08.955Z,986.30
2019-02-03T07:45:09.078Z,986.20
2019-02-03T07:46:09.208Z,986.27
2019-02-03T07:47:09.336Z,986.29
2019-02-03T07:48:09.469Z,986.33
2019-02-03T07:49:09.594Z,986.23
2019-02-03T07:50:09.729Z,986.27
2019-02-03T07:51:09.855Z,986.36
2019-02-03T07:52:10.160Z,986.39
2019-02-03T07:53:10.153Z,986.39
2019-02-03T07:54:10.278Z,986.36
2019-02-03T07:55:10.413Z,986.43
2019-02-03T07:56:10.570Z,986.45
2019-02-03T07:57:10.675Z,986.49
2019-02-03T07:58:12.483Z,986.53
2019-02-03T07:59:10.929Z,986.52
2019-02-03T08:00:11.196Z,986.47
2019-02-03T08:01:11.182Z,986.47
2019-02-03T08:02:11.320Z,986.47
2019-02-03T08:03:11.438Z,986.43
2019-02-03T08:04:11.585Z,986.61
2019-02-03T08:05:11.728Z,986.53
2019-02-03T08:06:11.855Z,986.58
2019-02-03T08:07:11.982Z,986.59
2019-02-03T08:08:12.151Z,986.60
2019-02-03T08:09:12.275Z,986.60
2019-02-03T08:10:23.820Z,986.60
2019-02-03T08:11:12.531Z,986.67
2019-02-03T08:12:12.663Z,986.64
2019-02-03T08:13:12.785Z,986.68
2019-02-03T08:14:12.915Z,986.70
2019-02-03T08:15:13.047Z,986.70
2019-02-03T08:16:13.207Z,986.76
2019-02-03T08:17:13.333Z,986.76
2019-02-03T08:18:13.482Z,986.77
2019-02-03T08:19:13.601Z,986.82
2019-02-03T08:20:13.730Z,986.80
2019-02-03T08:21:13.869Z,986.78
2019-02-03T08:22:14.006Z,986.80
2019-02-03T08:23:14.660Z,986.85
2019-02-03T08:24:14.318Z,986.86
2019-02-03T08:25:14.459Z,986.86
2019-02-03T08:26:14.582Z,986.90
2019-02-03T08:27:14.715Z,986.92
2019-02-03T08:28:14.839Z,986.90
2019-02-03T08:29:15.058Z,986.95
2019-02-03T08:30:15.175Z,986.93
2019-02-03T08:31:15.308Z,986.95
2019-02-03T08:32:15.432Z,987.01
2019-02-03T08:33:15.575Z,987.04
2019-02-03T08:34:15.733Z,987.07
2019-02-03T08:35:15.838Z,987.06
2019-02-03T08:36:15.967Z,987.11
2019-02-03T08:37:16.165Z,987.12
2019-02-03T08:38:16.238Z,987.15
2019-02-03T08:39:16.369Z,987.23
2019-02-03T08:40:16.623Z,987.22
2019-02-03T08:41:16.606Z,987.23
2019-02-03T08:42:16.733Z,987.21
2019-02-03T08:43:16.855Z,987.31
2019-02-03T08:44:17.019Z,987.27
2019-02-03T08:45:17.137Z,987.31
2019-02-03T08:46:17.263Z,987.32
2019-02-03T08:47:17.398Z,987.34
2019-02-03T08:48:17.535Z,987.41
2019-02-03T08:49:17.668Z,987.41
2019-02-03T08:50:17.790Z,987.47
2019-02-03T08:51:17.917Z,987.46
2019-02-03T08:52:18.060Z,987.47
2019-02-03T08:53:18.191Z,987.50
2019-02-03T08:54:18.328Z,987.55
2019-02-03T08:55:18.460Z,987.55
2019-02-03T08:56:18.746Z,987.57
2019-02-03T08:57:18.751Z,987.64
2019-02-03T08:58:18.874Z,987.62
2019-02-03T08:59:19.002Z,987.66
2019-02-03T09:00:19.153Z,987.68
2019-02-03T09:01:19.276Z,987.65
2019-02-03T09:02:19.404Z,987.72
2019-02-03T09:03:19.530Z,987.76
2019-02-03T09:04:19.672Z,987.78
2019-02-03T09:05:19.811Z,987.81
2019-02-03T09:06:19.943Z,987.83
2019-02-03T09:07:20.068Z,987.86
2019-02-03T09:08:20.194Z,987.85
2019-02-03T09:09:20.321Z,987.91
2019-02-03T09:10:20.450Z,987.92
2019-02-03T09:11:20.581Z,987.91
2019-02-03T09:12:20.701Z,987.93
2019-02-03T09:13:20.827Z,987.90
2019-02-03T09:14:20.960Z,987.98
2019-02-03T09:15:21.083Z,988.03
2019-02-03T09:16:21.212Z,987.98
2019-02-03T09:17:21.342Z,988.05
2019-02-03T09:18:21.473Z,988.02
2019-02-03T09:19:21.606Z,988.03
2019-02-03T09:20:21.745Z,988.03
2019-02-03T09:21:21.863Z,988.06
2019-02-03T09:22:21.991Z,988.02
2019-02-03T09:23:22.118Z,988.04
2019-02-03T09:24:22.238Z,988.05
2019-02-03T09:25:22.365Z,988.12
2019-02-03T09:26:22.496Z,988.10
2019-02-03T09:27:22.622Z,988.15
2019-02-03T09:28:22.744Z,988.15
2019-02-03T09:29:22.876Z,988.16
2019-02-03T09:30:22.995Z,988.21
2019-02-03T09:31:23.131Z,988.18
2019-02-03T09:32:23.261Z,988.16
2019-02-03T09:33:23.387Z,988.25
2019-02-03T09:34:23.514Z,988.23
2019-02-03T09:35:23.642Z,988.23
2019-02-03T09:36:23.864Z,988.18
2019-02-03T09:37:23.871Z,988.20
2019-02-03T09:38:24.047Z,988.22
2019-02-03T09:39:24.126Z,988.22
2019-02-03T09:40:24.265Z,988.21
2019-02-03T09:41:24.381Z,988.23
2019-02-03T09:42:24.528Z,988.28
2019-02-03T09:43:24.660Z,988.26
2019-02-03T09:44:24.787Z,988.20
2019-02-03T09:45:24.915Z,988.29
2019-02-03T09:46:25.038Z,988.21
2019-02-03T09:47:25.165Z,988.21
2019-02-03T09:48:25.304Z,988.21
2019-02-03T09:49:25.434Z,988.21
2019-02-03T09:50:25.561Z,988.20
2019-02-03T09:51:25.685Z,988.24
2019-02-03T09:52:25.812Z,988.26
2019-02-03T09:53:25.954Z,988.21
2019-02-03T09:54:26.110Z,988.23
2019-02-03T09:55:26.269Z,988.34
2019-02-03T09:56:26.387Z,988.27
2019-02-03T09:57:26.526Z,988.33
2019-02-03T09:58:26.679Z,988.29
2019-02-03T09:59:26.801Z,988.30
2019-02-03T10:00:26.932Z,988.35
2019-02-03T10:01:27.065Z,988.36
2019-02-03T10:02:27.231Z,988.36
2019-02-03T10:03:27.353Z,988.35
2019-02-03T10:04:27.487Z,988.36
2019-02-03T10:05:27.614Z,988.39
2019-02-03T10:06:27.768Z,988.38
2019-02-03T10:07:27.891Z,988.42
2019-02-03T10:08:40.082Z,988.44
2019-02-03T10:09:28.151Z,988.45
2019-02-03T10:10:28.310Z,988.40
2019-02-03T10:11:28.429Z,988.41
2019-02-03T10:12:28.559Z,988.48
2019-02-03T10:13:28.721Z,988.50
2019-02-03T10:14:28.841Z,988.51
2019-02-03T10:15:28.970Z,988.51
2019-02-03T10:16:29.106Z,988.52
2019-02-03T10:17:29.245Z,988.48
2019-02-03T10:18:29.370Z,988.52
2019-02-03T10:19:29.499Z,988.55
2019-02-03T10:20:29.650Z,988.54
2019-02-03T10:21:29.796Z,988.52
2019-02-03T10:22:29.926Z,988.50
2019-02-03T10:23:30.076Z,988.54
2019-02-03T10:24:41.665Z,988.53
2019-02-03T10:25:30.347Z,988.54
2019-02-03T10:26:30.501Z,988.56
2019-02-03T10:27:30.629Z,988.60
2019-02-03T10:28:30.751Z,988.58
2019-02-03T10:29:30.886Z,988.56
2019-02-03T10:30:31.016Z,988.58
2019-02-03T10:31:31.139Z,988.60
2019-02-03T10:32:31.266Z,988.57
2019-02-03T10:33:31.427Z,988.63
2019-02-03T10:34:31.552Z,988.61
2019-02-03T10:35:31.685Z,988.58
2019-02-03T10:36:31.824Z,988.58
2019-02-03T10:37:31.961Z,988.54
2019-02-03T10:38:32.110Z,988.60
2019-02-03T10:39:33.023Z,988.55
2019-02-03T10:40:32.376Z,988.55
2019-02-03T10:41:32.512Z,988.58
2019-02-03T10:42:32.633Z,988.55
2019-02-03T10:43:32.769Z,988.57
2019-02-03T10:44:32.899Z,988.61
2019-02-03T10:45:33.053Z,988.55
2019-02-03T10:46:33.166Z,988.52
2019-02-03T10:47:33.317Z,988.58
2019-02-03T10:48:33.512Z,988.52
2019-02-03T10:49:33.629Z,988.53
2019-02-03T10:50:33.763Z,988.54
2019-02-03T10:51:33.917Z,988.65
2019-02-03T10:52:34.081Z,988.56
2019-02-03T10:53:34.211Z,988.62
2019-02-03T10:54:34.343Z,988.62
2019-02-03T10:55:35.155Z,988.56
2019-02-03T10:56:34.645Z,988.58
2019-02-03T10:57:34.775Z,988.58
2019-02-03T10:58:34.904Z,988.60
2019-02-03T10:59:35.073Z,988.57
2019-02-03T11:00:35.173Z,988.56
2019-02-03T11:01:35.309Z,988.61
2019-02-03T11:02:35.444Z,988.60
2019-02-03T11:03:35.584Z,988.60
2019-02-03T11:04:35.722Z,988.71
2019-02-03T11:05:35.855Z,988.66
2019-02-03T11:06:35.989Z,988.59
2019-02-03T11:07:36.118Z,988.64
2019-02-03T11:08:36.253Z,988.66
2019-02-03T11:09:36.386Z,988.59
2019-02-03T11:10:36.517Z,988.65
2019-02-03T11:11:37.104Z,988.63
2019-02-03T11:12:36.771Z,988.64
2019-02-03T11:13:36.889Z,988.65
2019-02-03T11:14:37.023Z,988.70
2019-02-03T11:15:37.149Z,988.70
2019-02-03T11:16:37.277Z,988.70
2019-02-03T11:17:37.402Z,988.71
2019-02-03T11:18:37.541Z,988.71
2019-02-03T11:19:37.662Z,988.73
2019-02-03T11:20:37.791Z,988.78
2019-02-03T11:21:37.930Z,988.76
2019-02-03T11:22:38.054Z,988.77
2019-02-03T11:23:38.187Z,988.76
2019-02-03T11:24:38.332Z,988.76
2019-02-03T11:25:38.473Z,988.81
2019-02-03T11:26:38.600Z,988.84
2019-02-03T11:27:38.733Z,988.91
2019-02-03T11:28:38.869Z,988.87
2019-02-03T11:29:39.009Z,988.85
2019-02-03T11:30:39.140Z,988.92
2019-02-03T11:31:39.275Z,988.89
2019-02-03T11:32:39.403Z,988.95
2019-02-03T11:33:39.582Z,988.96
2019-02-03T11:34:39.654Z,988.99
2019-02-03T11:35:39.784Z,988.98
2019-02-03T11:36:39.914Z,989.02
2019-02-03T11:37:40.042Z,988.94
2019-02-03T11:38:40.183Z,988.97
2019-02-03T11:39:40.310Z,989.04
2019-02-03T11:40:40.443Z,989.02
2019-02-03T11:41:48.577Z,988.94
2019-02-03T11:42:40.703Z,989.11
2019-02-03T11:43:43.316Z,989.06
2019-02-03T11:44:40.912Z,989.09
2019-02-03T11:45:41.050Z,989.06
2019-02-03T11:46:41.278Z,989.09
2019-02-03T11:47:41.313Z,989.13
2019-02-03T11:48:41.546Z,989.10
2019-02-03T11:49:41.550Z,989.12
2019-02-03T11:50:41.693Z,989.09
2019-02-03T11:51:41.823Z,989.16
2019-02-03T11:52:41.949Z,989.11
2019-02-03T11:53:42.090Z,989.21
2019-02-03T11:54:42.229Z,989.16
2019-02-03T11:55:42.854Z,989.15
2019-02-03T11:56:42.505Z,989.14
2019-02-03T11:57:42.646Z,989.14
2019-02-03T11:58:43.347Z,989.19
2019-02-03T11:59:42.881Z,989.21
2019-02-03T12:00:43.010Z,989.22
2019-02-03T12:01:43.139Z,989.21
2019-02-03T12:02:43.271Z,989.25
2019-02-03T12:03:43.400Z,989.24
2019-02-03T12:04:43.561Z,989.27
2019-02-03T12:05:43.698Z,989.23
2019-02-03T12:06:43.845Z,989.29
2019-02-03T12:07:43.979Z,989.34
2019-02-03T12:08:44.120Z,989.36
2019-02-03T12:09:44.247Z,989.35
2019-02-03T12:10:44.378Z,989.30
2019-02-03T12:11:44.502Z,989.32
2019-02-03T12:12:44.639Z,989.33
2019-02-03T12:13:44.765Z,989.39
2019-02-03T12:14:44.919Z,989.36
2019-02-03T12:15:47.912Z,989.39
2019-02-03T12:16:45.175Z,989.38
2019-02-03T12:17:45.303Z,989.42
2019-02-03T12:18:45.451Z,989.39
2019-02-03T12:19:45.577Z,989.38
2019-02-03T12:20:45.722Z,989.37
2019-02-03T12:21:45.851Z,989.38
2019-02-03T12:22:45.983Z,989.36
2019-02-03T12:23:46.152Z,989.44
2019-02-03T12:24:46.282Z,989.42
2019-02-03T12:25:46.425Z,989.37
2019-02-03T12:26:46.559Z,989.40
2019-02-03T12:27:46.729Z,989.44
2019-02-03T12:28:46.846Z,989.43
2019-02-03T12:29:46.995Z,989.45